sensor_id;sensor_type;location;lat;lon;timestamp;P1;durP1;ratioP1;P2;durP2;ratioP2
2724;SDS011;1370;52.596;13.112;2023-07-29T00:02:06;7.97;;;4.77;;
2724;SDS011;1370;52.596;13.112;2023-07-29T00:04:32;4.90;;;4.40;;
2724;SDS011;1370;52.596;13.112;2023-07-29T00:06:57;4.67;;;4.07;;
2724;SDS011;1370;52.596;13.112;2023-07-29T00:09:22;3.47;;;3.13;;
2724;SDS011;1370;52.596;13.112;2023-07-29T00:11:47;4.60;;;3.20;;
2724;SDS011;1370;52.596;13.112;2023-07-29T00:14:13;4.00;;;3.40;;
2724;SDS011;1370;52.596;13.112;2023-07-29T00:16:38;3.57;;;3.27;;
2724;SDS011;1370;52.596;13.112;2023-07-29T00:19:03;4.33;;;3.80;;
2724;SDS011;1370;52.596;13.112;2023-07-29T00:21:29;6.30;;;3.30;;
2724;SDS011;1370;52.596;13.112;2023-07-29T00:23:54;3.53;;;3.23;;
2724;SDS011;1370;52.596;13.112;2023-07-29T00:26:22;3.63;;;2.80;;
2724;SDS011;1370;52.596;13.112;2023-07-29T00:28:47;3.73;;;3.43;;
2724;SDS011;1370;52.596;13.112;2023-07-29T00:31:12;3.70;;;3.40;;
2724;SDS011;1370;52.596;13.112;2023-07-29T00:33:38;4.07;;;3.60;;
2724;SDS011;1370;52.596;13.112;2023-07-29T00:36:03;3.33;;;3.03;;
2724;SDS011;1370;52.596;13.112;2023-07-29T00:38:29;4.43;;;3.50;;
2724;SDS011;1370;52.596;13.112;2023-07-29T00:40:54;4.87;;;3.17;;
2724;SDS011;1370;52.596;13.112;2023-07-29T00:43:21;3.60;;;3.30;;
2724;SDS011;1370;52.596;13.112;2023-07-29T00:45:47;4.37;;;3.70;;
2724;SDS011;1370;52.596;13.112;2023-07-29T00:48:12;5.83;;;3.30;;
2724;SDS011;1370;52.596;13.112;2023-07-29T00:50:37;8.63;;;4.23;;
2724;SDS011;1370;52.596;13.112;2023-07-29T00:53:03;3.63;;;2.87;;
2724;SDS011;1370;52.596;13.112;2023-07-29T00:55:28;3.80;;;3.50;;
2724;SDS011;1370;52.596;13.112;2023-07-29T00:57:54;3.77;;;3.37;;
2724;SDS011;1370;52.596;13.112;2023-07-29T01:00:19;4.43;;;4.03;;
2724;SDS011;1370;52.596;13.112;2023-07-29T01:02:45;4.00;;;3.43;;
2724;SDS011;1370;52.596;13.112;2023-07-29T01:05:11;5.60;;;4.50;;
2724;SDS011;1370;52.596;13.112;2023-07-29T01:07:39;5.23;;;3.30;;
2724;SDS011;1370;52.596;13.112;2023-07-29T01:10:21;5.30;;;4.27;;
2724;SDS011;1370;52.596;13.112;2023-07-29T01:15:45;5.40;;;4.27;;
2724;SDS011;1370;52.596;13.112;2023-07-29T01:18:26;5.40;;;3.63;;
2724;SDS011;1370;52.596;13.112;2023-07-29T01:20:54;3.87;;;3.53;;
2724;SDS011;1370;52.596;13.112;2023-07-29T01:23:23;4.43;;;4.03;;
2724;SDS011;1370;52.596;13.112;2023-07-29T01:25:49;4.00;;;3.60;;
2724;SDS011;1370;52.596;13.112;2023-07-29T01:28:14;4.07;;;3.37;;
2724;SDS011;1370;52.596;13.112;2023-07-29T01:30:40;5.63;;;4.47;;
2724;SDS011;1370;52.596;13.112;2023-07-29T01:33:09;3.93;;;3.63;;
2724;SDS011;1370;52.596;13.112;2023-07-29T01:35:41;6.33;;;3.57;;
2724;SDS011;1370;52.596;13.112;2023-07-29T01:38:17;4.20;;;3.90;;
2724;SDS011;1370;52.596;13.112;2023-07-29T01:40:44;9.50;;;4.67;;
2724;SDS011;1370;52.596;13.112;2023-07-29T01:43:09;4.07;;;3.67;;
2724;SDS011;1370;52.596;13.112;2023-07-29T01:45:35;6.20;;;3.70;;
2724;SDS011;1370;52.596;13.112;2023-07-29T01:51:11;4.13;;;3.73;;
2724;SDS011;1370;52.596;13.112;2023-07-29T01:53:36;8.60;;;4.20;;
2724;SDS011;1370;52.596;13.112;2023-07-29T01:56:02;4.40;;;4.00;;
2724;SDS011;1370;52.596;13.112;2023-07-29T01:58:27;4.20;;;3.80;;
2724;SDS011;1370;52.596;13.112;2023-07-29T02:00:52;4.90;;;3.67;;
2724;SDS011;1370;52.596;13.112;2023-07-29T02:03:18;4.10;;;3.70;;
2724;SDS011;1370;52.596;13.112;2023-07-29T02:05:43;4.50;;;4.10;;
2724;SDS011;1370;52.596;13.112;2023-07-29T02:08:09;4.87;;;4.47;;
2724;SDS011;1370;52.596;13.112;2023-07-29T02:10:34;6.13;;;4.07;;
2724;SDS011;1370;52.596;13.112;2023-07-29T02:12:59;5.93;;;3.03;;
2724;SDS011;1370;52.596;13.112;2023-07-29T02:15:25;4.00;;;3.70;;
2724;SDS011;1370;52.596;13.112;2023-07-29T02:17:50;7.70;;;3.77;;
2724;SDS011;1370;52.596;13.112;2023-07-29T02:20:16;3.70;;;3.40;;
2724;SDS011;1370;52.596;13.112;2023-07-29T02:22:42;3.67;;;3.37;;
2724;SDS011;1370;52.596;13.112;2023-07-29T02:25:07;4.20;;;3.80;;
2724;SDS011;1370;52.596;13.112;2023-07-29T02:27:33;3.80;;;3.50;;
2724;SDS011;1370;52.596;13.112;2023-07-29T02:29:58;3.33;;;3.03;;
2724;SDS011;1370;52.596;13.112;2023-07-29T02:32:23;3.37;;;3.07;;
2724;SDS011;1370;52.596;13.112;2023-07-29T02:34:49;5.10;;;3.90;;
2724;SDS011;1370;52.596;13.112;2023-07-29T02:37:14;5.23;;;3.00;;
2724;SDS011;1370;52.596;13.112;2023-07-29T02:39:39;5.40;;;3.67;;
2724;SDS011;1370;52.596;13.112;2023-07-29T02:42:05;3.23;;;2.93;;
2724;SDS011;1370;52.596;13.112;2023-07-29T02:44:30;3.80;;;3.50;;
2724;SDS011;1370;52.596;13.112;2023-07-29T02:46:55;4.43;;;4.03;;
2724;SDS011;1370;52.596;13.112;2023-07-29T02:49:21;4.00;;;3.60;;
2724;SDS011;1370;52.596;13.112;2023-07-29T02:51:47;4.70;;;4.03;;
2724;SDS011;1370;52.596;13.112;2023-07-29T02:54:12;5.63;;;4.33;;
2724;SDS011;1370;52.596;13.112;2023-07-29T02:56:37;5.50;;;5.00;;
2724;SDS011;1370;52.596;13.112;2023-07-29T02:59:03;4.13;;;3.83;;
2724;SDS011;1370;52.596;13.112;2023-07-29T03:01:28;3.93;;;3.63;;
2724;SDS011;1370;52.596;13.112;2023-07-29T03:03:53;5.53;;;4.17;;
2724;SDS011;1370;52.596;13.112;2023-07-29T03:06:18;4.67;;;4.17;;
2724;SDS011;1370;52.596;13.112;2023-07-29T03:08:44;4.67;;;4.33;;
2724;SDS011;1370;52.596;13.112;2023-07-29T03:11:10;4.67;;;4.27;;
2724;SDS011;1370;52.596;13.112;2023-07-29T03:13:38;4.03;;;3.73;;
2724;SDS011;1370;52.596;13.112;2023-07-29T03:16:07;5.67;;;5.07;;
2724;SDS011;1370;52.596;13.112;2023-07-29T03:18:35;5.90;;;4.33;;
2724;SDS011;1370;52.596;13.112;2023-07-29T03:21:01;4.37;;;3.90;;
2724;SDS011;1370;52.596;13.112;2023-07-29T03:23:30;5.20;;;4.77;;
2724;SDS011;1370;52.596;13.112;2023-07-29T03:25:57;6.60;;;4.90;;
2724;SDS011;1370;52.596;13.112;2023-07-29T03:28:26;9.57;;;4.87;;
2724;SDS011;1370;52.596;13.112;2023-07-29T03:30:55;5.80;;;5.27;;
2724;SDS011;1370;52.596;13.112;2023-07-29T03:33:21;5.50;;;4.70;;
2724;SDS011;1370;52.596;13.112;2023-07-29T03:35:47;7.40;;;4.97;;
2724;SDS011;1370;52.596;13.112;2023-07-29T03:38:12;5.70;;;4.50;;
2724;SDS011;1370;52.596;13.112;2023-07-29T03:40:38;7.20;;;5.17;;
2724;SDS011;1370;52.596;13.112;2023-07-29T03:43:03;8.73;;;5.00;;
2724;SDS011;1370;52.596;13.112;2023-07-29T03:45:29;7.20;;;5.73;;
2724;SDS011;1370;52.596;13.112;2023-07-29T03:47:54;7.20;;;5.30;;
2724;SDS011;1370;52.596;13.112;2023-07-29T03:50:20;5.33;;;4.83;;
2724;SDS011;1370;52.596;13.112;2023-07-29T03:52:45;4.40;;;4.00;;
2724;SDS011;1370;52.596;13.112;2023-07-29T03:55:10;4.40;;;4.00;;
2724;SDS011;1370;52.596;13.112;2023-07-29T03:57:36;4.27;;;3.93;;
2724;SDS011;1370;52.596;13.112;2023-07-29T04:00:01;3.40;;;3.10;;
2724;SDS011;1370;52.596;13.112;2023-07-29T04:02:27;3.70;;;3.27;;
2724;SDS011;1370;52.596;13.112;2023-07-29T04:04:52;3.43;;;3.13;;
2724;SDS011;1370;52.596;13.112;2023-07-29T04:07:17;4.57;;;4.17;;
2724;SDS011;1370;52.596;13.112;2023-07-29T04:09:42;5.50;;;4.60;;
2724;SDS011;1370;52.596;13.112;2023-07-29T04:12:08;5.30;;;4.80;;
2724;SDS011;1370;52.596;13.112;2023-07-29T04:14:34;10.43;;;4.93;;
2724;SDS011;1370;52.596;13.112;2023-07-29T04:16:59;11.83;;;5.97;;
2724;SDS011;1370;52.596;13.112;2023-07-29T04:19:24;5.73;;;5.17;;
2724;SDS011;1370;52.596;13.112;2023-07-29T04:21:50;7.13;;;4.93;;
2724;SDS011;1370;52.596;13.112;2023-07-29T04:24:15;5.40;;;4.90;;
2724;SDS011;1370;52.596;13.112;2023-07-29T04:26:41;5.80;;;5.30;;
2724;SDS011;1370;52.596;13.112;2023-07-29T04:29:06;5.60;;;5.10;;
2724;SDS011;1370;52.596;13.112;2023-07-29T04:31:31;6.80;;;5.27;;
2724;SDS011;1370;52.596;13.112;2023-07-29T04:33:57;5.87;;;5.37;;
2724;SDS011;1370;52.596;13.112;2023-07-29T04:36:22;7.80;;;6.10;;
2724;SDS011;1370;52.596;13.112;2023-07-29T04:38:47;6.80;;;5.17;;
2724;SDS011;1370;52.596;13.112;2023-07-29T04:41:13;5.77;;;5.17;;
2724;SDS011;1370;52.596;13.112;2023-07-29T04:43:38;7.27;;;4.77;;
2724;SDS011;1370;52.596;13.112;2023-07-29T04:46:06;5.23;;;4.73;;
2724;SDS011;1370;52.596;13.112;2023-07-29T04:48:32;8.57;;;5.87;;
2724;SDS011;1370;52.596;13.112;2023-07-29T04:50:57;5.10;;;4.73;;
2724;SDS011;1370;52.596;13.112;2023-07-29T04:53:23;6.33;;;5.73;;
2724;SDS011;1370;52.596;13.112;2023-07-29T04:55:48;5.43;;;5.03;;
2724;SDS011;1370;52.596;13.112;2023-07-29T04:58:14;5.83;;;5.23;;
2724;SDS011;1370;52.596;13.112;2023-07-29T05:00:39;6.10;;;4.47;;
2724;SDS011;1370;52.596;13.112;2023-07-29T05:03:05;5.90;;;5.30;;
2724;SDS011;1370;52.596;13.112;2023-07-29T05:05:31;6.23;;;5.63;;
2724;SDS011;1370;52.596;13.112;2023-07-29T05:07:56;9.03;;;6.20;;
2724;SDS011;1370;52.596;13.112;2023-07-29T05:10:21;6.17;;;5.67;;
2724;SDS011;1370;52.596;13.112;2023-07-29T05:12:47;6.43;;;5.80;;
2724;SDS011;1370;52.596;13.112;2023-07-29T05:15:12;6.00;;;5.40;;
2724;SDS011;1370;52.596;13.112;2023-07-29T05:17:37;6.80;;;6.20;;
2724;SDS011;1370;52.596;13.112;2023-07-29T05:20:03;7.97;;;6.90;;
2724;SDS011;1370;52.596;13.112;2023-07-29T05:22:28;7.60;;;6.73;;
2724;SDS011;1370;52.596;13.112;2023-07-29T05:24:54;6.80;;;6.10;;
2724;SDS011;1370;52.596;13.112;2023-07-29T05:27:19;7.03;;;6.40;;
2724;SDS011;1370;52.596;13.112;2023-07-29T05:29:44;7.33;;;6.63;;
2724;SDS011;1370;52.596;13.112;2023-07-29T05:32:10;6.07;;;5.57;;
2724;SDS011;1370;52.596;13.112;2023-07-29T05:34:35;8.70;;;7.30;;
2724;SDS011;1370;52.596;13.112;2023-07-29T05:37:00;8.13;;;7.40;;
2724;SDS011;1370;52.596;13.112;2023-07-29T05:39:25;14.50;;;8.57;;
2724;SDS011;1370;52.596;13.112;2023-07-29T05:41:51;15.83;;;9.77;;
2724;SDS011;1370;52.596;13.112;2023-07-29T05:44:16;8.57;;;7.70;;
2724;SDS011;1370;52.596;13.112;2023-07-29T05:46:41;7.63;;;6.93;;
2724;SDS011;1370;52.596;13.112;2023-07-29T05:49:07;9.67;;;8.40;;
2724;SDS011;1370;52.596;13.112;2023-07-29T05:51:32;11.40;;;8.07;;
2724;SDS011;1370;52.596;13.112;2023-07-29T05:53:57;9.07;;;7.43;;
2724;SDS011;1370;52.596;13.112;2023-07-29T05:56:22;9.23;;;8.40;;
2724;SDS011;1370;52.596;13.112;2023-07-29T05:58:48;12.07;;;8.27;;
2724;SDS011;1370;52.596;13.112;2023-07-29T06:01:13;9.00;;;7.03;;
2724;SDS011;1370;52.596;13.112;2023-07-29T06:03:38;9.30;;;6.83;;
2724;SDS011;1370;52.596;13.112;2023-07-29T06:06:04;9.30;;;7.17;;
2724;SDS011;1370;52.596;13.112;2023-07-29T06:08:29;8.77;;;7.87;;
2724;SDS011;1370;52.596;13.112;2023-07-29T06:10:54;9.97;;;7.40;;
2724;SDS011;1370;52.596;13.112;2023-07-29T06:13:19;7.70;;;6.90;;
2724;SDS011;1370;52.596;13.112;2023-07-29T06:15:45;8.93;;;7.37;;
2724;SDS011;1370;52.596;13.112;2023-07-29T06:18:10;9.77;;;8.10;;
2724;SDS011;1370;52.596;13.112;2023-07-29T06:20:35;8.67;;;7.20;;
2724;SDS011;1370;52.596;13.112;2023-07-29T06:23:01;8.40;;;7.60;;
2724;SDS011;1370;52.596;13.112;2023-07-29T06:25:27;10.30;;;8.63;;
2724;SDS011;1370;52.596;13.112;2023-07-29T06:27:52;9.73;;;7.30;;
2724;SDS011;1370;52.596;13.112;2023-07-29T06:30:17;8.80;;;7.90;;
2724;SDS011;1370;52.596;13.112;2023-07-29T06:32:43;9.53;;;8.53;;
2724;SDS011;1370;52.596;13.112;2023-07-29T06:35:08;9.10;;;8.30;;
2724;SDS011;1370;52.596;13.112;2023-07-29T06:37:33;7.60;;;6.90;;
2724;SDS011;1370;52.596;13.112;2023-07-29T06:39:58;8.63;;;7.73;;
2724;SDS011;1370;52.596;13.112;2023-07-29T06:42:24;12.00;;;7.50;;
2724;SDS011;1370;52.596;13.112;2023-07-29T06:44:49;6.87;;;6.27;;
2724;SDS011;1370;52.596;13.112;2023-07-29T06:47:14;11.40;;;7.30;;
2724;SDS011;1370;52.596;13.112;2023-07-29T06:49:40;7.10;;;6.00;;
2724;SDS011;1370;52.596;13.112;2023-07-29T06:52:05;6.80;;;6.17;;
2724;SDS011;1370;52.596;13.112;2023-07-29T06:54:30;6.70;;;6.10;;
2724;SDS011;1370;52.596;13.112;2023-07-29T06:56:56;7.97;;;6.40;;
2724;SDS011;1370;52.596;13.112;2023-07-29T06:59:21;7.33;;;6.63;;
2724;SDS011;1370;52.596;13.112;2023-07-29T07:01:46;8.13;;;7.33;;
2724;SDS011;1370;52.596;13.112;2023-07-29T07:04:12;22.27;;;8.77;;
2724;SDS011;1370;52.596;13.112;2023-07-29T07:06:37;9.90;;;8.90;;
2724;SDS011;1370;52.596;13.112;2023-07-29T07:09:02;10.40;;;9.40;;
2724;SDS011;1370;52.596;13.112;2023-07-29T07:11:28;9.60;;;8.20;;
2724;SDS011;1370;52.596;13.112;2023-07-29T07:13:53;8.40;;;7.60;;
2724;SDS011;1370;52.596;13.112;2023-07-29T07:16:19;8.73;;;7.80;;
2724;SDS011;1370;52.596;13.112;2023-07-29T07:18:44;11.93;;;8.87;;
2724;SDS011;1370;52.596;13.112;2023-07-29T07:21:09;8.20;;;7.60;;
2724;SDS011;1370;52.596;13.112;2023-07-29T07:23:34;9.20;;;8.30;;
2724;SDS011;1370;52.596;13.112;2023-07-29T07:26:00;9.87;;;8.97;;
2724;SDS011;1370;52.596;13.112;2023-07-29T07:28:25;8.53;;;7.63;;
2724;SDS011;1370;52.596;13.112;2023-07-29T07:30:51;10.73;;;8.50;;
2724;SDS011;1370;52.596;13.112;2023-07-29T07:33:16;10.93;;;9.03;;
2724;SDS011;1370;52.596;13.112;2023-07-29T07:35:42;10.03;;;9.20;;
2724;SDS011;1370;52.596;13.112;2023-07-29T07:38:07;11.63;;;10.53;;
2724;SDS011;1370;52.596;13.112;2023-07-29T07:40:34;9.83;;;9.13;;
2724;SDS011;1370;52.596;13.112;2023-07-29T07:43:00;12.27;;;11.20;;
2724;SDS011;1370;52.596;13.112;2023-07-29T07:45:25;17.10;;;16.00;;
2724;SDS011;1370;52.596;13.112;2023-07-29T07:47:51;25.37;;;23.77;;
2724;SDS011;1370;52.596;13.112;2023-07-29T07:50:18;34.03;;;32.23;;
2724;SDS011;1370;52.596;13.112;2023-07-29T07:52:43;39.27;;;36.77;;
2724;SDS011;1370;52.596;13.112;2023-07-29T07:55:09;69.33;;;66.33;;
2724;SDS011;1370;52.596;13.112;2023-07-29T07:57:34;60.50;;;57.87;;
2724;SDS011;1370;52.596;13.112;2023-07-29T07:59:59;59.67;;;57.17;;
2724;SDS011;1370;52.596;13.112;2023-07-29T08:02:25;68.27;;;65.17;;
2724;SDS011;1370;52.596;13.112;2023-07-29T08:04:51;67.20;;;64.13;;
2724;SDS011;1370;52.596;13.112;2023-07-29T08:07:16;73.23;;;69.80;;
2724;SDS011;1370;52.596;13.112;2023-07-29T08:09:41;62.10;;;59.17;;
2724;SDS011;1370;52.596;13.112;2023-07-29T08:12:06;63.90;;;61.20;;
2724;SDS011;1370;52.596;13.112;2023-07-29T08:14:32;69.67;;;66.77;;
2724;SDS011;1370;52.596;13.112;2023-07-29T08:16:58;89.80;;;85.87;;
2724;SDS011;1370;52.596;13.112;2023-07-29T08:19:23;99.27;;;95.33;;
2724;SDS011;1370;52.596;13.112;2023-07-29T08:21:48;83.70;;;80.27;;
2724;SDS011;1370;52.596;13.112;2023-07-29T08:24:14;102.17;;;97.63;;
2724;SDS011;1370;52.596;13.112;2023-07-29T08:26:39;94.30;;;90.50;;
2724;SDS011;1370;52.596;13.112;2023-07-29T08:29:04;82.53;;;78.93;;
2724;SDS011;1370;52.596;13.112;2023-07-29T08:31:30;93.33;;;89.43;;
2724;SDS011;1370;52.596;13.112;2023-07-29T08:33:58;93.53;;;89.60;;
2724;SDS011;1370;52.596;13.112;2023-07-29T08:36:23;105.37;;;100.87;;
2724;SDS011;1370;52.596;13.112;2023-07-29T08:38:49;115.30;;;110.77;;
2724;SDS011;1370;52.596;13.112;2023-07-29T08:41:16;117.80;;;112.80;;
2724;SDS011;1370;52.596;13.112;2023-07-29T08:43:52;120.17;;;115.23;;
2724;SDS011;1370;52.596;13.112;2023-07-29T08:46:21;124.23;;;119.33;;
2724;SDS011;1370;52.596;13.112;2023-07-29T08:48:46;116.93;;;111.83;;
2724;SDS011;1370;52.596;13.112;2023-07-29T08:51:12;125.53;;;120.27;;
2724;SDS011;1370;52.596;13.112;2023-07-29T08:53:38;134.43;;;128.90;;
2724;SDS011;1370;52.596;13.112;2023-07-29T08:56:04;133.23;;;127.87;;
2724;SDS011;1370;52.596;13.112;2023-07-29T08:58:30;137.03;;;131.30;;
2724;SDS011;1370;52.596;13.112;2023-07-29T09:00:56;150.83;;;144.57;;
2724;SDS011;1370;52.596;13.112;2023-07-29T09:03:21;153.10;;;147.03;;
2724;SDS011;1370;52.596;13.112;2023-07-29T09:05:47;134.10;;;128.37;;
2724;SDS011;1370;52.596;13.112;2023-07-29T09:08:13;158.17;;;151.60;;
2724;SDS011;1370;52.596;13.112;2023-07-29T09:10:38;137.83;;;131.83;;
2724;SDS011;1370;52.596;13.112;2023-07-29T09:13:04;122.63;;;117.40;;
2724;SDS011;1370;52.596;13.112;2023-07-29T09:15:31;133.13;;;127.60;;
2724;SDS011;1370;52.596;13.112;2023-07-29T09:17:57;130.90;;;124.90;;
2724;SDS011;1370;52.596;13.112;2023-07-29T09:20:24;130.20;;;124.80;;
2724;SDS011;1370;52.596;13.112;2023-07-29T09:22:57;137.03;;;131.43;;
2724;SDS011;1370;52.596;13.112;2023-07-29T09:25:25;140.97;;;135.17;;
2724;SDS011;1370;52.596;13.112;2023-07-29T09:27:51;138.50;;;132.43;;
2724;SDS011;1370;52.596;13.112;2023-07-29T09:30:16;149.70;;;143.30;;
2724;SDS011;1370;52.596;13.112;2023-07-29T09:32:42;142.13;;;136.17;;
2724;SDS011;1370;52.596;13.112;2023-07-29T09:35:11;143.47;;;137.40;;
2724;SDS011;1370;52.596;13.112;2023-07-29T09:37:37;142.23;;;136.23;;
2724;SDS011;1370;52.596;13.112;2023-07-29T09:40:03;136.37;;;130.53;;
2724;SDS011;1370;52.596;13.112;2023-07-29T09:42:28;135.27;;;129.50;;
2724;SDS011;1370;52.596;13.112;2023-07-29T09:44:54;157.27;;;151.10;;
2724;SDS011;1370;52.596;13.112;2023-07-29T09:47:20;148.67;;;142.53;;
2724;SDS011;1370;52.596;13.112;2023-07-29T09:49:49;124.97;;;119.43;;
2724;SDS011;1370;52.596;13.112;2023-07-29T09:52:18;152.27;;;146.03;;
2724;SDS011;1370;52.596;13.112;2023-07-29T09:54:44;149.73;;;143.60;;
2724;SDS011;1370;52.596;13.112;2023-07-29T09:57:11;144.10;;;137.97;;
2724;SDS011;1370;52.596;13.112;2023-07-29T09:59:37;162.80;;;155.80;;
2724;SDS011;1370;52.596;13.112;2023-07-29T10:02:03;143.70;;;137.57;;
2724;SDS011;1370;52.596;13.112;2023-07-29T10:04:28;133.53;;;127.73;;
2724;SDS011;1370;52.596;13.112;2023-07-29T10:06:54;143.43;;;137.60;;
2724;SDS011;1370;52.596;13.112;2023-07-29T10:09:20;137.20;;;131.67;;
2724;SDS011;1370;52.596;13.112;2023-07-29T10:11:45;118.80;;;113.70;;
2724;SDS011;1370;52.596;13.112;2023-07-29T10:14:11;85.83;;;82.10;;
2724;SDS011;1370;52.596;13.112;2023-07-29T10:16:36;92.13;;;87.87;;
2724;SDS011;1370;52.596;13.112;2023-07-29T10:19:03;89.23;;;85.20;;
2724;SDS011;1370;52.596;13.112;2023-07-29T10:21:29;85.27;;;81.13;;
2724;SDS011;1370;52.596;13.112;2023-07-29T10:23:54;82.73;;;78.97;;
2724;SDS011;1370;52.596;13.112;2023-07-29T10:26:26;68.40;;;65.30;;
2724;SDS011;1370;52.596;13.112;2023-07-29T10:28:52;49.53;;;46.90;;
2724;SDS011;1370;52.596;13.112;2023-07-29T10:31:19;64.33;;;60.63;;
2724;SDS011;1370;52.596;13.112;2023-07-29T10:33:46;49.50;;;46.40;;
2724;SDS011;1370;52.596;13.112;2023-07-29T10:36:12;33.80;;;32.00;;
2724;SDS011;1370;52.596;13.112;2023-07-29T10:38:37;45.90;;;42.77;;
2724;SDS011;1370;52.596;13.112;2023-07-29T10:41:03;50.10;;;46.43;;
2724;SDS011;1370;52.596;13.112;2023-07-29T10:43:32;52.90;;;50.17;;
2724;SDS011;1370;52.596;13.112;2023-07-29T10:46:14;52.57;;;49.93;;
2724;SDS011;1370;52.596;13.112;2023-07-29T10:48:53;49.77;;;47.50;;
2724;SDS011;1370;52.596;13.112;2023-07-29T10:53:52;27.30;;;25.60;;
2724;SDS011;1370;52.596;13.112;2023-07-29T10:56:26;29.03;;;27.17;;
2724;SDS011;1370;52.596;13.112;2023-07-29T10:58:56;24.40;;;22.43;;
2724;SDS011;1370;52.596;13.112;2023-07-29T11:01:26;21.30;;;19.90;;
2724;SDS011;1370;52.596;13.112;2023-07-29T11:17:33;9.33;;;8.53;;
2724;SDS011;1370;52.596;13.112;2023-07-29T11:20:01;9.50;;;8.60;;
2724;SDS011;1370;52.596;13.112;2023-07-29T11:22:28;8.33;;;7.73;;
2724;SDS011;1370;52.596;13.112;2023-07-29T11:24:53;8.30;;;7.60;;
2724;SDS011;1370;52.596;13.112;2023-07-29T11:27:19;9.53;;;8.63;;
2724;SDS011;1370;52.596;13.112;2023-07-29T11:29:44;9.53;;;6.13;;
2724;SDS011;1370;52.596;13.112;2023-07-29T11:32:09;7.90;;;6.30;;
2724;SDS011;1370;52.596;13.112;2023-07-29T11:34:35;6.43;;;5.90;;
2724;SDS011;1370;52.596;13.112;2023-07-29T11:37:00;6.23;;;5.73;;
2724;SDS011;1370;52.596;13.112;2023-07-29T11:39:25;5.60;;;5.13;;
2724;SDS011;1370;52.596;13.112;2023-07-29T11:41:51;8.43;;;4.63;;
2724;SDS011;1370;52.596;13.112;2023-07-29T11:44:16;9.03;;;5.80;;
2724;SDS011;1370;52.596;13.112;2023-07-29T11:46:42;4.97;;;4.47;;
2724;SDS011;1370;52.596;13.112;2023-07-29T11:49:08;4.33;;;4.03;;
2724;SDS011;1370;52.596;13.112;2023-07-29T11:51:33;5.27;;;4.60;;
2724;SDS011;1370;52.596;13.112;2023-07-29T11:53:59;5.73;;;4.80;;
2724;SDS011;1370;52.596;13.112;2023-07-29T11:56:24;4.37;;;3.97;;
2724;SDS011;1370;52.596;13.112;2023-07-29T11:58:50;4.50;;;4.20;;
2724;SDS011;1370;52.596;13.112;2023-07-29T12:01:15;4.57;;;4.17;;
2724;SDS011;1370;52.596;13.112;2023-07-29T12:03:40;5.07;;;4.63;;
2724;SDS011;1370;52.596;13.112;2023-07-29T12:06:06;4.10;;;3.80;;
2724;SDS011;1370;52.596;13.112;2023-07-29T12:08:32;5.47;;;4.20;;
2724;SDS011;1370;52.596;13.112;2023-07-29T12:10:57;4.47;;;4.07;;
2724;SDS011;1370;52.596;13.112;2023-07-29T12:13:25;5.60;;;4.40;;
2724;SDS011;1370;52.596;13.112;2023-07-29T12:15:51;4.03;;;3.60;;
2724;SDS011;1370;52.596;13.112;2023-07-29T12:18:16;4.10;;;3.70;;
2724;SDS011;1370;52.596;13.112;2023-07-29T12:20:42;3.50;;;3.20;;
2724;SDS011;1370;52.596;13.112;2023-07-29T12:23:08;4.70;;;4.10;;
2724;SDS011;1370;52.596;13.112;2023-07-29T12:25:34;5.17;;;3.77;;
2724;SDS011;1370;52.596;13.112;2023-07-29T12:28:03;5.03;;;4.43;;
2724;SDS011;1370;52.596;13.112;2023-07-29T12:30:29;5.17;;;4.50;;
2724;SDS011;1370;52.596;13.112;2023-07-29T12:32:55;3.70;;;3.40;;
2724;SDS011;1370;52.596;13.112;2023-07-29T12:35:20;8.97;;;5.23;;
2724;SDS011;1370;52.596;13.112;2023-07-29T12:37:45;7.23;;;3.47;;
2724;SDS011;1370;52.596;13.112;2023-07-29T12:40:23;4.17;;;3.87;;
2724;SDS011;1370;52.596;13.112;2023-07-29T12:42:50;4.30;;;3.70;;
2724;SDS011;1370;52.596;13.112;2023-07-29T12:45:18;4.27;;;3.80;;
2724;SDS011;1370;52.596;13.112;2023-07-29T12:47:44;4.60;;;4.30;;
2724;SDS011;1370;52.596;13.112;2023-07-29T12:50:09;4.03;;;3.73;;
2724;SDS011;1370;52.596;13.112;2023-07-29T12:52:35;4.60;;;4.20;;
2724;SDS011;1370;52.596;13.112;2023-07-29T12:55:00;3.37;;;3.07;;
2724;SDS011;1370;52.596;13.112;2023-07-29T12:57:25;3.90;;;3.60;;
2724;SDS011;1370;52.596;13.112;2023-07-29T12:59:50;3.70;;;3.40;;
2724;SDS011;1370;52.596;13.112;2023-07-29T13:02:16;7.03;;;4.83;;
2724;SDS011;1370;52.596;13.112;2023-07-29T13:04:41;6.33;;;4.17;;
2724;SDS011;1370;52.596;13.112;2023-07-29T13:07:06;8.73;;;8.13;;
2724;SDS011;1370;52.596;13.112;2023-07-29T13:09:32;9.50;;;8.90;;
2724;SDS011;1370;52.596;13.112;2023-07-29T13:11:57;11.50;;;10.80;;
2724;SDS011;1370;52.596;13.112;2023-07-29T13:14:22;6.70;;;6.30;;
2724;SDS011;1370;52.596;13.112;2023-07-29T13:16:48;6.43;;;5.83;;
2724;SDS011;1370;52.596;13.112;2023-07-29T13:19:13;7.33;;;6.83;;
2724;SDS011;1370;52.596;13.112;2023-07-29T13:21:38;6.93;;;6.50;;
2724;SDS011;1370;52.596;13.112;2023-07-29T13:24:04;18.90;;;17.73;;
2724;SDS011;1370;52.596;13.112;2023-07-29T13:26:29;8.53;;;7.93;;
2724;SDS011;1370;52.596;13.112;2023-07-29T13:28:54;5.80;;;5.40;;
2724;SDS011;1370;52.596;13.112;2023-07-29T13:31:20;14.27;;;13.47;;
2724;SDS011;1370;52.596;13.112;2023-07-29T13:33:46;17.93;;;16.53;;
2724;SDS011;1370;52.596;13.112;2023-07-29T13:36:11;26.70;;;25.40;;
2724;SDS011;1370;52.596;13.112;2023-07-29T13:38:36;39.90;;;37.87;;
2724;SDS011;1370;52.596;13.112;2023-07-29T13:41:02;63.97;;;60.97;;
2724;SDS011;1370;52.596;13.112;2023-07-29T13:43:27;70.07;;;67.27;;
2724;SDS011;1370;52.596;13.112;2023-07-29T13:45:52;88.17;;;84.67;;
2724;SDS011;1370;52.596;13.112;2023-07-29T13:48:18;143.80;;;138.30;;
2724;SDS011;1370;52.596;13.112;2023-07-29T13:50:43;129.77;;;124.17;;
2724;SDS011;1370;52.596;13.112;2023-07-29T13:53:09;62.27;;;59.63;;
2724;SDS011;1370;52.596;13.112;2023-07-29T13:55:34;169.73;;;163.43;;
2724;SDS011;1370;52.596;13.112;2023-07-29T13:57:59;118.43;;;113.63;;
2724;SDS011;1370;52.596;13.112;2023-07-29T14:00:25;129.97;;;124.83;;
2724;SDS011;1370;52.596;13.112;2023-07-29T14:02:50;103.90;;;99.53;;
2724;SDS011;1370;52.596;13.112;2023-07-29T14:05:15;92.20;;;88.27;;
2724;SDS011;1370;52.596;13.112;2023-07-29T14:07:41;113.70;;;109.13;;
2724;SDS011;1370;52.596;13.112;2023-07-29T14:10:06;140.47;;;134.77;;
2724;SDS011;1370;52.596;13.112;2023-07-29T14:12:31;150.30;;;144.43;;
2724;SDS011;1370;52.596;13.112;2023-07-29T14:14:57;136.60;;;130.63;;
2724;SDS011;1370;52.596;13.112;2023-07-29T14:17:22;156.53;;;150.43;;
2724;SDS011;1370;52.596;13.112;2023-07-29T14:19:47;101.57;;;97.33;;
2724;SDS011;1370;52.596;13.112;2023-07-29T14:22:13;158.80;;;152.50;;
2724;SDS011;1370;52.596;13.112;2023-07-29T14:24:38;133.67;;;128.13;;
2724;SDS011;1370;52.596;13.112;2023-07-29T14:27:04;107.43;;;102.47;;
2724;SDS011;1370;52.596;13.112;2023-07-29T14:29:29;139.23;;;133.67;;
2724;SDS011;1370;52.596;13.112;2023-07-29T14:31:54;115.00;;;110.37;;
2724;SDS011;1370;52.596;13.112;2023-07-29T14:34:20;149.67;;;143.87;;
2724;SDS011;1370;52.596;13.112;2023-07-29T14:36:45;144.63;;;138.57;;
2724;SDS011;1370;52.596;13.112;2023-07-29T14:39:10;146.27;;;140.60;;
2724;SDS011;1370;52.596;13.112;2023-07-29T14:41:36;153.87;;;147.10;;
2724;SDS011;1370;52.596;13.112;2023-07-29T14:44:01;174.30;;;167.27;;
2724;SDS011;1370;52.596;13.112;2023-07-29T14:46:27;105.17;;;99.90;;
2724;SDS011;1370;52.596;13.112;2023-07-29T14:48:52;74.20;;;69.37;;
2724;SDS011;1370;52.596;13.112;2023-07-29T14:51:17;116.20;;;110.80;;
2724;SDS011;1370;52.596;13.112;2023-07-29T14:53:43;130.10;;;124.17;;
2724;SDS011;1370;52.596;13.112;2023-07-29T14:56:08;129.93;;;123.97;;
2724;SDS011;1370;52.596;13.112;2023-07-29T14:58:33;127.67;;;122.07;;
2724;SDS011;1370;52.596;13.112;2023-07-29T15:00:58;134.50;;;128.40;;